createdAt,value
2023-12-23T00:00:07.395Z,3.80
2023-12-23T00:02:38.657Z,3.80
2023-12-23T00:05:07.913Z,3.80
2023-12-23T00:07:37.037Z,3.80
2023-12-23T00:10:05.796Z,3.80
2023-12-23T00:12:34.622Z,3.70
2023-12-23T00:15:05.369Z,3.70
2023-12-23T00:17:36.085Z,3.60
2023-12-23T00:20:11.669Z,3.60
2023-12-23T00:22:39.580Z,3.50
2023-12-23T00:25:09.255Z,3.50
2023-12-23T00:27:36.454Z,3.30
2023-12-23T00:30:07.746Z,3.30
2023-12-23T00:32:35.449Z,3.30
2023-12-23T00:35:06.349Z,3.30
2023-12-23T00:37:33.545Z,3.20
2023-12-23T00:40:04.018Z,3.10
2023-12-23T00:42:36.125Z,3.00
2023-12-23T00:45:04.201Z,3.20
2023-12-23T00:47:34.196Z,3.20
2023-12-23T00:50:09.133Z,3.10
2023-12-23T00:52:37.646Z,3.10
2023-12-23T00:55:06.538Z,3.10
2023-12-23T00:57:37.216Z,3.10
2023-12-23T01:00:05.357Z,3.00
2023-12-23T01:02:35.881Z,3.00
2023-12-23T01:05:03.024Z,3.00
2023-12-23T01:07:32.637Z,3.00
2023-12-23T01:10:01.167Z,3.00
2023-12-23T01:12:29.402Z,2.90
2023-12-23T01:14:58.858Z,3.00
2023-12-23T01:17:29.585Z,3.00
2023-12-23T01:20:01.835Z,2.90
2023-12-23T01:22:30.524Z,2.90
2023-12-23T01:24:59.699Z,2.80
2023-12-23T01:27:28.532Z,2.90
2023-12-23T01:29:58.162Z,2.80
2023-12-23T01:32:25.877Z,2.80
2023-12-23T01:34:54.035Z,3.00
2023-12-23T01:37:26.102Z,2.90
2023-12-23T01:39:53.370Z,3.00
2023-12-23T01:42:21.381Z,2.80
2023-12-23T01:44:51.449Z,2.90
2023-12-23T01:47:19.604Z,2.90
2023-12-23T01:49:49.342Z,3.00
2023-12-23T01:52:17.470Z,3.00
2023-12-23T01:54:45.812Z,3.00
2023-12-23T01:57:15.601Z,3.00
2023-12-23T01:59:43.619Z,3.00
2023-12-23T02:02:11.462Z,3.00
2023-12-23T02:04:43.074Z,3.10
2023-12-23T02:07:10.163Z,2.90
2023-12-23T02:09:37.213Z,3.00
2023-12-23T02:12:23.119Z,3.00
2023-12-23T02:15:08.827Z,3.00
2023-12-23T02:17:35.976Z,3.00
2023-12-23T02:20:04.167Z,3.00
2023-12-23T02:22:32.198Z,3.00
2023-12-23T02:24:59.412Z,3.10
2023-12-23T02:27:41.753Z,3.00
2023-12-23T02:30:13.916Z,3.10
2023-12-23T02:32:43.222Z,3.00
2023-12-23T02:35:10.532Z,3.10
2023-12-23T02:37:39.724Z,3.20
2023-12-23T02:40:07.356Z,3.20
2023-12-23T02:42:34.301Z,3.30
2023-12-23T02:45:01.427Z,3.20
2023-12-23T02:47:28.334Z,3.20
2023-12-23T02:49:55.324Z,3.20
2023-12-23T02:52:22.428Z,3.30
2023-12-23T02:54:49.375Z,3.30
2023-12-23T02:57:16.487Z,3.30
2023-12-23T02:59:44.412Z,3.20
2023-12-23T03:02:11.463Z,3.30
2023-12-23T03:04:38.437Z,3.30
2023-12-23T03:07:07.288Z,3.40
2023-12-23T03:09:36.132Z,3.30
2023-12-23T03:12:04.229Z,3.30
2023-12-23T03:14:31.229Z,3.30
2023-12-23T03:16:58.263Z,3.30
2023-12-23T03:19:25.357Z,3.30
2023-12-23T03:21:52.351Z,3.30
2023-12-23T03:24:19.264Z,3.30
2023-12-23T03:26:46.262Z,3.40
2023-12-23T03:29:16.243Z,3.40
2023-12-23T03:31:43.311Z,3.50
2023-12-23T03:34:10.323Z,3.60
2023-12-23T03:36:37.357Z,3.70
2023-12-23T03:39:05.193Z,3.60
2023-12-23T03:41:32.224Z,3.60
2023-12-23T03:43:59.687Z,3.70
2023-12-23T03:46:28.333Z,3.80
2023-12-23T03:48:55.695Z,3.80
2023-12-23T03:51:24.519Z,3.80
2023-12-23T03:53:51.581Z,3.80
2023-12-23T03:56:18.751Z,3.90
2023-12-23T03:58:47.664Z,4.10
2023-12-23T04:01:16.950Z,4.20
2023-12-23T04:03:44.566Z,4.40
2023-12-23T04:06:13.057Z,4.50
2023-12-23T04:08:41.756Z,4.70
2023-12-23T04:11:09.068Z,4.80
2023-12-23T04:13:38.001Z,4.90
2023-12-23T04:16:06.030Z,4.90
2023-12-23T04:18:33.343Z,4.90
2023-12-23T04:21:00.399Z,5.00
2023-12-23T04:23:27.489Z,5.10
2023-12-23T04:25:55.023Z,5.10
2023-12-23T04:28:26.018Z,5.10
2023-12-23T04:30:56.416Z,5.20
2023-12-23T04:33:24.506Z,5.20
2023-12-23T04:35:51.688Z,5.20
2023-12-23T04:38:18.706Z,5.20
2023-12-23T04:40:45.918Z,5.30
2023-12-23T04:43:12.874Z,5.30
2023-12-23T04:45:40.403Z,5.20
2023-12-23T04:48:08.206Z,5.00
2023-12-23T04:50:36.463Z,4.80
2023-12-23T04:53:04.481Z,4.60
2023-12-23T04:55:31.477Z,4.20
2023-12-23T04:57:58.563Z,3.80
2023-12-23T05:00:25.587Z,3.50
2023-12-23T05:02:52.900Z,3.40
2023-12-23T05:05:20.128Z,3.30
2023-12-23T05:07:48.197Z,3.20
2023-12-23T05:10:15.343Z,3.30
2023-12-23T05:12:42.361Z,3.40
2023-12-23T05:15:09.625Z,3.40
2023-12-23T05:17:36.930Z,3.30
2023-12-23T05:20:04.393Z,3.40
2023-12-23T05:22:31.441Z,3.40
2023-12-23T05:24:58.697Z,3.50
2023-12-23T05:27:26.103Z,3.70
2023-12-23T05:29:53.067Z,3.50
2023-12-23T05:32:20.157Z,3.50
2023-12-23T05:34:47.241Z,3.60
2023-12-23T05:37:14.258Z,3.50
2023-12-23T05:39:42.100Z,3.70
2023-12-23T05:42:09.082Z,3.70
2023-12-23T05:44:36.067Z,3.70
2023-12-23T05:47:03.411Z,3.70
2023-12-23T05:49:30.354Z,3.80
2023-12-23T05:51:58.199Z,3.90
2023-12-23T05:54:25.617Z,3.90
2023-12-23T05:56:52.651Z,4.00
2023-12-23T05:59:19.786Z,3.90
2023-12-23T06:01:46.823Z,3.90
2023-12-23T06:04:13.743Z,3.90
2023-12-23T06:06:40.686Z,3.90
2023-12-23T06:09:07.910Z,4.00
2023-12-23T06:11:34.985Z,4.00
2023-12-23T06:14:02.313Z,3.90
2023-12-23T06:16:29.238Z,4.00
2023-12-23T06:18:56.450Z,4.10
2023-12-23T06:21:23.435Z,4.00
2023-12-23T06:23:50.426Z,4.10
2023-12-23T06:26:17.454Z,4.10
2023-12-23T06:28:44.537Z,4.10
2023-12-23T06:31:11.592Z,4.10
2023-12-23T06:33:38.628Z,4.10
2023-12-23T06:36:06.039Z,4.10
2023-12-23T06:38:33.057Z,4.10
2023-12-23T06:41:00.383Z,4.00
2023-12-23T06:43:45.377Z,4.10
2023-12-23T06:46:14.886Z,4.20
2023-12-23T06:48:42.004Z,4.20
2023-12-23T06:51:09.022Z,4.20
2023-12-23T06:53:36.114Z,4.20
2023-12-23T06:56:07.419Z,4.20
2023-12-23T06:58:34.782Z,4.10
2023-12-23T07:01:02.711Z,4.20
2023-12-23T07:03:29.891Z,4.20
2023-12-23T07:05:56.977Z,4.20
2023-12-23T07:08:24.378Z,4.30
2023-12-23T07:10:51.567Z,4.20
2023-12-23T07:13:20.315Z,4.10
2023-12-23T07:15:47.279Z,4.20
2023-12-23T07:18:15.223Z,4.10
2023-12-23T07:20:43.927Z,4.10
2023-12-23T07:23:11.288Z,4.10
2023-12-23T07:25:38.367Z,4.00
2023-12-23T07:28:05.532Z,4.00
2023-12-23T07:30:32.641Z,4.00
2023-12-23T07:32:59.775Z,4.10
2023-12-23T07:35:26.991Z,4.00
2023-12-23T07:37:54.321Z,3.90
2023-12-23T07:40:21.407Z,3.90
2023-12-23T07:42:48.725Z,3.90
2023-12-23T07:45:16.185Z,3.80
2023-12-23T07:47:43.315Z,3.90
2023-12-23T07:50:13.848Z,3.90
2023-12-23T07:52:40.851Z,3.90
2023-12-23T07:55:08.827Z,3.90
2023-12-23T07:57:35.948Z,4.00
2023-12-23T08:00:03.660Z,4.00
2023-12-23T08:02:31.418Z,3.90
2023-12-23T08:04:59.223Z,3.90
2023-12-23T08:07:26.184Z,3.90
2023-12-23T08:09:53.631Z,3.90
2023-12-23T08:12:20.718Z,4.00
2023-12-23T08:14:52.720Z,3.90
2023-12-23T08:17:19.766Z,3.90
2023-12-23T08:19:47.080Z,3.90
2023-12-23T08:22:14.117Z,4.00
2023-12-23T08:24:41.109Z,3.90
2023-12-23T08:27:08.204Z,4.00
2023-12-23T08:29:35.292Z,4.00
2023-12-23T08:32:02.495Z,4.00
2023-12-23T08:34:29.517Z,4.00
2023-12-23T08:36:56.630Z,4.00
2023-12-23T08:39:23.801Z,4.10
2023-12-23T08:41:51.149Z,4.30
2023-12-23T08:44:19.307Z,4.20
2023-12-23T08:46:46.574Z,4.00
2023-12-23T08:49:13.707Z,4.00
2023-12-23T08:51:40.946Z,4.10
2023-12-23T08:54:07.911Z,4.00
2023-12-23T08:56:34.920Z,4.00
2023-12-23T08:59:01.941Z,4.10
2023-12-23T09:01:30.738Z,4.00
2023-12-23T09:03:57.765Z,4.00
2023-12-23T09:06:24.865Z,4.00
2023-12-23T09:08:54.403Z,4.00
2023-12-23T09:11:22.244Z,4.00
2023-12-23T09:13:49.352Z,3.90
2023-12-23T09:16:17.976Z,3.80
2023-12-23T09:18:44.996Z,3.90
2023-12-23T09:21:12.038Z,3.90
2023-12-23T09:23:39.136Z,3.70
2023-12-23T09:26:06.093Z,3.70
2023-12-23T09:28:33.024Z,3.60
2023-12-23T09:31:00.058Z,3.50
2023-12-23T09:33:27.145Z,3.40
2023-12-23T09:35:54.994Z,3.30
2023-12-23T09:38:22.167Z,3.20
2023-12-23T09:40:49.227Z,3.00
2023-12-23T09:43:17.388Z,3.00
2023-12-23T09:45:46.691Z,2.90
2023-12-23T09:48:13.752Z,2.80
2023-12-23T09:50:40.828Z,2.70
2023-12-23T09:53:11.990Z,2.60
2023-12-23T09:55:41.090Z,2.60
2023-12-23T09:58:08.406Z,2.40
2023-12-23T10:00:38.224Z,2.30
2023-12-23T10:03:06.136Z,2.30
2023-12-23T10:05:33.472Z,2.30
2023-12-23T10:08:00.716Z,2.30
2023-12-23T10:10:28.330Z,2.30
2023-12-23T10:12:55.852Z,2.20
2023-12-23T10:15:23.022Z,2.20
2023-12-23T10:17:50.634Z,2.20
2023-12-23T10:20:17.894Z,2.10
2023-12-23T10:22:46.198Z,2.10
2023-12-23T10:25:14.228Z,2.00
2023-12-23T10:27:42.660Z,2.00
2023-12-23T10:30:11.652Z,1.90
2023-12-23T10:32:40.087Z,1.90
2023-12-23T10:35:11.414Z,1.90
2023-12-23T10:37:43.519Z,2.00
2023-12-23T10:40:20.169Z,2.00
2023-12-23T10:42:50.426Z,1.80
2023-12-23T10:45:17.848Z,1.90
2023-12-23T10:47:46.760Z,1.90
2023-12-23T10:50:15.509Z,2.00
2023-12-23T10:52:43.184Z,2.00
2023-12-23T10:55:13.753Z,2.10
2023-12-23T10:57:42.008Z,2.00
2023-12-23T11:00:11.059Z,2.00
2023-12-23T11:02:39.300Z,2.00
2023-12-23T11:05:11.337Z,2.00
2023-12-23T11:07:44.250Z,1.90
2023-12-23T11:10:13.945Z,1.90
2023-12-23T11:12:42.890Z,1.90
2023-12-23T11:15:10.235Z,2.00
2023-12-23T11:17:43.892Z,2.00
2023-12-23T11:20:31.072Z,2.00
2023-12-23T11:22:58.187Z,2.00
2023-12-23T11:25:39.576Z,2.00
2023-12-23T11:28:11.424Z,2.00
2023-12-23T11:30:58.206Z,1.90
2023-12-23T11:33:31.176Z,2.00
2023-12-23T11:36:01.381Z,2.10
2023-12-23T11:38:30.954Z,2.00
2023-12-23T11:40:59.480Z,2.00
2023-12-23T11:43:26.557Z,2.00
2023-12-23T11:45:54.562Z,2.00
2023-12-23T11:48:23.500Z,2.00
2023-12-23T11:50:58.127Z,2.00
2023-12-23T11:53:25.175Z,2.00
2023-12-23T11:55:52.610Z,1.90
2023-12-23T11:58:19.760Z,2.00
2023-12-23T12:00:55.749Z,1.90
2023-12-23T12:03:25.389Z,1.90
2023-12-23T12:05:57.631Z,1.90
2023-12-23T12:08:25.712Z,1.80
2023-12-23T12:11:02.309Z,1.90
2023-12-23T12:13:32.132Z,2.00
2023-12-23T12:15:59.256Z,2.00
2023-12-23T12:18:26.353Z,1.90
2023-12-23T12:20:53.485Z,1.90
2023-12-23T12:23:21.130Z,2.00
2023-12-23T12:25:51.655Z,2.00
2023-12-23T12:28:19.441Z,1.80
2023-12-23T12:30:47.960Z,1.90
2023-12-23T12:33:16.543Z,1.90
2023-12-23T12:35:43.607Z,2.00
2023-12-23T12:38:17.037Z,1.90
2023-12-23T12:40:50.482Z,2.00
2023-12-23T12:43:17.728Z,2.00
2023-12-23T12:45:44.744Z,1.90
2023-12-23T12:48:13.262Z,2.00
2023-12-23T12:50:43.946Z,2.10
2023-12-23T12:53:11.271Z,2.10
2023-12-23T12:55:38.268Z,2.20
2023-12-23T12:58:05.239Z,2.60
2023-12-23T13:00:32.601Z,3.30
2023-12-23T13:02:59.812Z,4.00
2023-12-23T13:05:26.936Z,4.60
2023-12-23T13:07:54.173Z,5.10
2023-12-23T13:10:21.199Z,5.20
2023-12-23T13:12:48.270Z,5.50
2023-12-23T13:15:15.520Z,5.60
2023-12-23T13:17:42.624Z,5.80
2023-12-23T13:20:13.237Z,5.80
2023-12-23T13:22:40.455Z,5.80
2023-12-23T13:25:11.076Z,5.90
2023-12-23T13:27:38.266Z,6.10
2023-12-23T13:30:06.255Z,6.30
2023-12-23T13:32:35.427Z,6.20
2023-12-23T13:35:03.070Z,6.30
2023-12-23T13:37:30.444Z,6.40
2023-12-23T13:39:57.337Z,6.40
2023-12-23T13:42:24.373Z,6.40
2023-12-23T13:44:51.407Z,6.50
2023-12-23T13:47:18.416Z,6.60
2023-12-23T13:49:45.671Z,6.60
2023-12-23T13:52:15.564Z,6.60
2023-12-23T13:54:42.513Z,6.70
2023-12-23T13:57:09.772Z,6.70
2023-12-23T13:59:36.885Z,6.70
2023-12-23T14:02:05.611Z,6.90
2023-12-23T14:04:32.646Z,6.90
2023-12-23T14:06:59.647Z,6.90
2023-12-23T14:09:26.667Z,6.90
2023-12-23T14:11:53.603Z,6.90
2023-12-23T14:14:20.725Z,7.00
2023-12-23T14:16:47.788Z,7.20
2023-12-23T14:19:15.036Z,7.10
2023-12-23T14:21:42.003Z,7.20
2023-12-23T14:24:09.036Z,7.20
2023-12-23T14:26:36.431Z,7.30
2023-12-23T14:29:03.484Z,7.30
2023-12-23T14:31:30.720Z,7.30
2023-12-23T14:33:57.805Z,7.30
2023-12-23T14:36:25.484Z,7.30
2023-12-23T14:38:52.443Z,7.30
2023-12-23T14:41:19.663Z,7.30
2023-12-23T14:43:47.420Z,7.30
2023-12-23T14:46:15.677Z,7.40
2023-12-23T14:48:42.889Z,7.40
2023-12-23T14:51:13.067Z,7.50
2023-12-23T14:53:40.049Z,7.50
2023-12-23T14:56:07.407Z,7.50
2023-12-23T14:58:34.458Z,7.50
2023-12-23T15:01:01.411Z,7.50
2023-12-23T15:03:28.465Z,7.60
2023-12-23T15:05:55.583Z,7.60
2023-12-23T15:08:22.653Z,7.70
2023-12-23T15:10:49.685Z,7.60
2023-12-23T15:13:21.051Z,7.60
2023-12-23T15:15:48.458Z,7.70
2023-12-23T15:18:16.056Z,7.70
2023-12-23T15:20:43.139Z,7.80
2023-12-23T15:23:10.406Z,7.80
2023-12-23T15:25:37.525Z,7.80
2023-12-23T15:28:04.755Z,7.80
2023-12-23T15:30:31.722Z,7.80
2023-12-23T15:32:58.854Z,7.90
2023-12-23T15:35:25.902Z,7.90
2023-12-23T15:37:52.989Z,7.80
2023-12-23T15:40:19.994Z,7.80
2023-12-23T15:42:48.395Z,7.90
2023-12-23T15:45:18.592Z,7.90
2023-12-23T15:47:45.803Z,7.90
2023-12-23T15:50:13.280Z,7.90
2023-12-23T15:52:43.133Z,7.90
2023-12-23T15:55:10.092Z,8.00
2023-12-23T15:57:37.073Z,8.00
2023-12-23T16:00:04.618Z,7.90
2023-12-23T16:02:40.686Z,7.90
2023-12-23T16:05:09.529Z,8.00
2023-12-23T16:07:36.641Z,8.10
2023-12-23T16:10:04.394Z,8.10
2023-12-23T16:12:31.411Z,8.10
2023-12-23T16:14:58.709Z,8.10
2023-12-23T16:17:26.292Z,8.00
2023-12-23T16:19:53.482Z,8.00
2023-12-23T16:22:20.542Z,8.00
2023-12-23T16:24:47.448Z,8.10
2023-12-23T16:27:14.538Z,8.10
2023-12-23T16:29:44.247Z,8.10
2023-12-23T16:32:11.170Z,8.10
2023-12-23T16:34:38.129Z,8.10
2023-12-23T16:37:05.406Z,8.10
2023-12-23T16:39:32.437Z,8.10
2023-12-23T16:41:59.389Z,8.10
2023-12-23T16:44:26.391Z,8.10
2023-12-23T16:46:56.298Z,8.10
2023-12-23T16:49:24.734Z,8.10
2023-12-23T16:52:08.008Z,8.10
2023-12-23T16:54:34.942Z,8.10
2023-12-23T16:57:01.989Z,8.10
2023-12-23T16:59:28.955Z,7.90
2023-12-23T17:01:55.989Z,7.50
2023-12-23T17:04:23.271Z,7.20
2023-12-23T17:06:50.408Z,7.00
2023-12-23T17:09:17.679Z,6.90
2023-12-23T17:11:46.639Z,6.90
2023-12-23T17:14:14.922Z,6.50
2023-12-23T17:16:41.910Z,6.30
2023-12-23T17:19:08.918Z,6.20
2023-12-23T17:21:36.009Z,6.10
2023-12-23T17:24:04.144Z,6.10
2023-12-23T17:26:31.445Z,5.80
2023-12-23T17:28:58.449Z,5.80
2023-12-23T17:31:25.556Z,5.60
2023-12-23T17:33:52.612Z,5.70
2023-12-23T17:36:19.889Z,5.50
2023-12-23T17:38:47.688Z,5.50
2023-12-23T17:41:14.745Z,5.50
2023-12-23T17:43:41.746Z,5.40
2023-12-23T17:46:08.731Z,5.40
2023-12-23T17:48:35.811Z,5.40
2023-12-23T17:51:02.837Z,5.30
2023-12-23T17:53:29.847Z,5.30
2023-12-23T17:55:57.025Z,5.30
2023-12-23T17:58:24.011Z,5.20
2023-12-23T18:00:51.096Z,5.20
2023-12-23T18:03:19.677Z,5.20
2023-12-23T18:05:46.928Z,5.10
2023-12-23T18:08:13.977Z,5.00
2023-12-23T18:10:41.038Z,5.10
2023-12-23T18:13:09.383Z,5.20
2023-12-23T18:15:40.595Z,5.10
2023-12-23T18:18:08.924Z,5.20
2023-12-23T18:20:36.179Z,5.20
2023-12-23T18:23:03.236Z,5.20
2023-12-23T18:25:30.199Z,5.10
2023-12-23T18:27:57.400Z,5.00
2023-12-23T18:30:24.499Z,5.00
2023-12-23T18:32:53.360Z,5.10
2023-12-23T18:35:20.723Z,5.00
2023-12-23T18:37:47.817Z,4.90
2023-12-23T18:40:14.918Z,4.90
2023-12-23T18:42:41.925Z,5.00
2023-12-23T18:45:09.259Z,5.10
2023-12-23T18:47:36.340Z,5.00
2023-12-23T18:50:03.470Z,5.10
2023-12-23T18:52:30.449Z,5.00
2023-12-23T18:54:57.471Z,5.00
2023-12-23T18:57:24.855Z,4.90
2023-12-23T18:59:51.814Z,5.10
2023-12-23T19:02:18.858Z,5.20
2023-12-23T19:04:46.261Z,5.20
2023-12-23T19:07:13.368Z,5.30
2023-12-23T19:09:40.710Z,5.30
2023-12-23T19:12:07.816Z,5.30
2023-12-23T19:14:34.917Z,5.40
2023-12-23T19:17:02.457Z,5.50
2023-12-23T19:19:29.562Z,5.60
2023-12-23T19:21:56.637Z,5.60
2023-12-23T19:24:23.571Z,5.60
2023-12-23T19:26:51.599Z,5.70
2023-12-23T19:29:18.558Z,5.80
2023-12-23T19:31:45.798Z,5.80
2023-12-23T19:34:12.830Z,5.80
2023-12-23T19:36:40.104Z,5.90
2023-12-23T19:39:07.114Z,6.00
2023-12-23T19:41:37.045Z,6.00
2023-12-23T19:44:04.206Z,6.00
2023-12-23T19:46:31.987Z,6.00
2023-12-23T19:49:00.104Z,6.10
2023-12-23T19:51:28.913Z,6.10
2023-12-23T19:53:59.308Z,6.10
2023-12-23T19:56:26.812Z,6.10
2023-12-23T19:58:54.073Z,6.20
2023-12-23T20:01:21.080Z,6.30
2023-12-23T20:03:48.378Z,6.20
2023-12-23T20:06:15.947Z,6.20
2023-12-23T20:08:43.180Z,6.20
2023-12-23T20:11:10.199Z,6.20
2023-12-23T20:13:39.395Z,6.30
2023-12-23T20:16:06.509Z,6.30
2023-12-23T20:18:36.172Z,6.40
2023-12-23T20:21:03.920Z,6.40
2023-12-23T20:23:30.930Z,6.50
2023-12-23T20:25:58.013Z,6.50
2023-12-23T20:28:25.032Z,6.50
2023-12-23T20:30:54.945Z,6.60
2023-12-23T20:33:22.185Z,6.60
2023-12-23T20:35:50.721Z,6.60
2023-12-23T20:38:17.751Z,6.70
2023-12-23T20:40:44.826Z,6.60
2023-12-23T20:43:11.905Z,6.70
2023-12-23T20:45:39.875Z,6.80
2023-12-23T20:48:07.346Z,6.90
2023-12-23T20:50:34.867Z,7.10
2023-12-23T20:53:02.890Z,7.10
2023-12-23T20:55:30.170Z,7.20
2023-12-23T20:57:57.123Z,7.20
2023-12-23T21:00:24.108Z,7.30
2023-12-23T21:02:52.770Z,7.40
2023-12-23T21:05:23.419Z,7.40
2023-12-23T21:07:50.874Z,7.50
2023-12-23T21:10:18.440Z,7.50
2023-12-23T21:12:47.168Z,7.60
2023-12-23T21:15:14.247Z,7.70
2023-12-23T21:17:41.283Z,7.70
2023-12-23T21:20:08.803Z,7.60
2023-12-23T21:22:36.515Z,7.70
2023-12-23T21:25:04.139Z,7.70
2023-12-23T21:27:31.172Z,7.80
2023-12-23T21:29:58.423Z,7.80
2023-12-23T21:32:25.414Z,7.80
2023-12-23T21:34:52.435Z,7.90
2023-12-23T21:37:19.408Z,7.90
2023-12-23T21:39:46.314Z,7.90
2023-12-23T21:42:13.732Z,7.90
2023-12-23T21:44:40.748Z,8.00
2023-12-23T21:47:07.705Z,8.00
2023-12-23T21:49:34.970Z,8.00
2023-12-23T21:52:01.996Z,8.10
2023-12-23T21:54:28.914Z,8.10
2023-12-23T21:56:55.939Z,8.10
2023-12-23T21:59:27.268Z,8.20
2023-12-23T22:01:54.319Z,8.20
2023-12-23T22:04:21.496Z,8.20
2023-12-23T22:06:48.572Z,8.20
2023-12-23T22:09:16.041Z,8.30
2023-12-23T22:11:43.213Z,8.30
2023-12-23T22:14:10.267Z,8.30
2023-12-23T22:16:37.376Z,8.30
2023-12-23T22:19:04.531Z,8.40
2023-12-23T22:21:31.555Z,8.40
2023-12-23T22:23:58.909Z,8.30
2023-12-23T22:26:26.061Z,8.50
2023-12-23T22:28:53.153Z,8.30
2023-12-23T22:31:20.218Z,8.30
2023-12-23T22:33:47.370Z,8.40
2023-12-23T22:36:14.436Z,8.40
2023-12-23T22:38:41.503Z,8.40
2023-12-23T22:41:09.774Z,8.40
2023-12-23T22:43:36.733Z,8.40
2023-12-23T22:46:06.114Z,8.40
2023-12-23T22:48:33.304Z,8.40
2023-12-23T22:51:01.310Z,8.40
2023-12-23T22:53:28.472Z,8.40
2023-12-23T22:55:55.687Z,8.40
2023-12-23T22:58:22.723Z,8.50
2023-12-23T23:00:49.783Z,8.50
2023-12-23T23:03:16.865Z,8.50
2023-12-23T23:05:44.032Z,8.50
2023-12-23T23:08:11.164Z,8.50
2023-12-23T23:10:38.450Z,8.50
2023-12-23T23:13:05.744Z,8.50
2023-12-23T23:15:32.767Z,8.50
2023-12-23T23:18:00.734Z,8.60
2023-12-23T23:20:28.074Z,8.50
2023-12-23T23:22:55.540Z,8.60
2023-12-23T23:25:22.632Z,8.50
2023-12-23T23:27:49.586Z,8.50
2023-12-23T23:30:16.746Z,8.50
2023-12-23T23:32:43.782Z,8.50
2023-12-23T23:35:12.258Z,8.50
2023-12-23T23:37:39.663Z,8.50
2023-12-23T23:40:07.392Z,8.50
2023-12-23T23:42:34.329Z,8.40
2023-12-23T23:45:01.322Z,8.50
2023-12-23T23:47:28.586Z,8.50
2023-12-23T23:49:55.920Z,8.50
2023-12-23T23:52:22.992Z,8.50
2023-12-23T23:54:51.148Z,8.50
2023-12-23T23:57:18.124Z,8.50
2023-12-23T23:59:45.297Z,8.50
